^^
Saratoga-Weather Station Historical Data
Daily Summary for February 24, 2020 Units:  English    Metric   Both
Daily Weekly Monthly Yearly Custom
  High: Low: Average:
Temperature: 64.6 °F 46.9 °F 55.6 °F
Dew Point: 50.9 °F 43.9 °F 47.8 °F
Humidity: 95% 57% 77%
Wind Speed: 14.1mph 0mph 4.1mph
Wind Gust: 16mph - -
Wind- - West
Pressure: 30.5 in 30.4 in -
Precipitation: 0 in    
Historical Graphs
 
 
Tabular Data for February 24, 2020
Time Temperature Dew Point Pressure Wind Wind Speed Wind Gust Humidity Rainfall Rate (Hourly) solar
00:01 49.3 °F 47.8 °F 30.4 in North 2.9 mph 4 mph 95% 0 in 0 W/m2
00:06 49.3 °F 47.7 °F 30.4 in West 0.9 mph 7 mph 94% 0 in 0 W/m2
00:11 49.3 °F 47.7 °F 30.4 in North 2 mph 3 mph 94% 0 in 0 W/m2
00:16 49.3 °F 47.7 °F 30.4 in West 2 mph 6 mph 94% 0 in 0 W/m2
00:21 49.3 °F 47.7 °F 30.4 in West 2 mph 7 mph 94% 0 in 0 W/m2
00:26 49.3 °F 47.7 °F 30.4 in SSW 0.9 mph 5 mph 94% 0 in 0 W/m2
00:31 49.5 °F 47.5 °F 30.4 in West 2.9 mph 7 mph 93% 0 in 0 W/m2
00:36 49.5 °F 47.5 °F 30.4 in Calm   8 mph 93% 0 in 0 W/m2
00:41 49.5 °F 47.5 °F 30.4 in West 2 mph 3 mph 93% 0 in 0 W/m2
00:46 49.5 °F 47.5 °F 30.4 in WSW 0.9 mph 8 mph 93% 0 in 0 W/m2
00:51 49.3 °F 47.3 °F 30.4 in West 2 mph 4 mph 93% 0 in 0 W/m2
00:56 49.5 °F 47.5 °F 30.4 in South 4.9 mph 5 mph 93% 0 in 0 W/m2
01:01 49.5 °F 47.5 °F 30.4 in NNW 0.9 mph 4 mph 93% 0 in 0 W/m2
01:06 49.5 °F 47.3 °F 30.4 in WSW 0.9 mph 4 mph 92% 0 in 0 W/m2
01:11 49.3 °F 47.1 °F 30.4 in SW 2.9 mph 3 mph 92% 0 in 0 W/m2
01:16 49.3 °F 47.1 °F 30.4 in WSW 2 mph 5 mph 92% 0 in 0 W/m2
01:21 49.3 °F 47.1 °F 30.4 in WSW 4.9 mph 6 mph 92% 0 in 0 W/m2
01:26 49.3 °F 47.1 °F 30.4 in WNW 2.9 mph 6 mph 92% 0 in 0 W/m2
01:31 49.3 °F 47.1 °F 30.4 in WNW 0.9 mph 4 mph 92% 0 in 0 W/m2
01:36 49.3 °F 47.1 °F 30.4 in WNW 2.9 mph 5 mph 92% 0 in 0 W/m2
01:41 49.3 °F 47.1 °F 30.4 in WNW 2.9 mph 4 mph 92% 0 in 0 W/m2
01:46 49.5 °F 46.9 °F 30.4 in NW 4.9 mph 8 mph 91% 0 in 0 W/m2
01:51 49.5 °F 46.9 °F 30.4 in WNW 6.9 mph 9 mph 91% 0 in 0 W/m2
01:56 49.5 °F 46.9 °F 30.4 in West 6 mph 9 mph 91% 0 in 0 W/m2
02:01 49.3 °F 46.8 °F 30.4 in WNW 2 mph 5 mph 91% 0 in 0 W/m2
02:06 49.3 °F 46.8 °F 30.4 in NW 2.9 mph 8 mph 91% 0 in 0 W/m2
02:11 49.1 °F 46.6 °F 30.4 in WNW 4 mph 5 mph 91% 0 in 0 W/m2
02:16 49.1 °F 46.6 °F 30.4 in WNW 2.9 mph 4 mph 91% 0 in 0 W/m2
02:21 48.9 °F 46.4 °F 30.4 in NW 2.9 mph 6 mph 91% 0 in 0 W/m2
02:26 48.9 °F 46.4 °F 30.4 in WSW 2.9 mph 4 mph 91% 0 in 0 W/m2
02:31 48.7 °F 46.2 °F 30.4 in WNW 2.9 mph 5 mph 91% 0 in 0 W/m2
02:36 48.7 °F 46.2 °F 30.4 in WNW 2.9 mph 9 mph 91% 0 in 0 W/m2
02:41 48.6 °F 46 °F 30.4 in North 2 mph 7 mph 91% 0 in 0 W/m2
02:46 48.6 °F 46 °F 30.4 in NW 0.9 mph 9 mph 91% 0 in 0 W/m2
02:51 48.6 °F 46 °F 30.4 in Calm   2 mph 91% 0 in 0 W/m2
02:56 48.6 °F 45.7 °F 30.4 in WSW 4 mph 6 mph 90% 0 in 0 W/m2
03:01 48.6 °F 45.7 °F 30.4 in NW 2 mph 6 mph 90% 0 in 0 W/m2
03:06 48.6 °F 45.7 °F 30.4 in WNW 0.9 mph 4 mph 90% 0 in 0 W/m2
03:11 48.6 °F 45.5 °F 30.4 in Calm   4 mph 89% 0 in 0 W/m2
03:16 48.4 °F 45.5 °F 30.4 in NW 4.9 mph 6 mph 90% 0 in 0 W/m2
03:21 48.2 °F 45.3 °F 30.4 in WNW 2.9 mph 3 mph 90% 0 in 0 W/m2
03:26 48.2 °F 45.3 °F 30.4 in NW 2.9 mph 3 mph 90% 0 in 0 W/m2
03:31 48 °F 45.1 °F 30.4 in NW 2 mph 2 mph 90% 0 in 0 W/m2
03:36 48 °F 45.1 °F 30.4 in NNW 2 mph 3 mph 90% 0 in 0 W/m2
03:41 47.8 °F 45 °F 30.4 in NW 2.9 mph 4 mph 90% 0 in 0 W/m2
03:46 47.8 °F 45 °F 30.4 in WNW 2 mph 4 mph 90% 0 in 0 W/m2
03:51 47.8 °F 45 °F 30.4 in West 2 mph 4 mph 90% 0 in 0 W/m2
03:56 47.8 °F 45 °F 30.4 in NW 2 mph 4 mph 90% 0 in 0 W/m2
04:01 48 °F 45.1 °F 30.4 in NW 2.9 mph 4 mph 90% 0 in 0 W/m2
04:06 47.8 °F 45 °F 30.4 in WNW 2.9 mph 7 mph 90% 0 in 0 W/m2
04:11 47.7 °F 45 °F 30.4 in WNW 2 mph 6 mph 90% 0 in 0 W/m2
04:16 47.7 °F 45 °F 30.4 in WSW 2.9 mph 4 mph 90% 0 in 0 W/m2
04:21 47.7 °F 45 °F 30.4 in West 2.9 mph 7 mph 90% 0 in 0 W/m2
04:26 47.5 °F 44.8 °F 30.4 in WSW 4.9 mph 5 mph 90% 0 in 0 W/m2
04:31 47.5 °F 44.8 °F 30.4 in WNW 2 mph 7 mph 90% 0 in 0 W/m2
04:36 47.7 °F 45 °F 30.4 in NW 2 mph 4 mph 90% 0 in 0 W/m2
04:41 47.7 °F 45 °F 30.4 in West 2 mph 4 mph 90% 0 in 0 W/m2
04:46 47.5 °F 44.8 °F 30.4 in WNW 2 mph 4 mph 90% 0 in 0 W/m2
04:51 47.3 °F 44.6 °F 30.4 in West 2 mph 8 mph 90% 0 in 0 W/m2
04:56 47.1 °F 44.4 °F 30.4 in SW 0.9 mph 3 mph 90% 0 in 0 W/m2
05:01 47.1 °F 44.4 °F 30.4 in NW 0.9 mph 4 mph 90% 0 in 0 W/m2
05:06 47.1 °F 44.4 °F 30.4 in NNW 2 mph 4 mph 90% 0 in 0 W/m2
05:11 46.9 °F 44.2 °F 30.4 in WNW 2.9 mph 6 mph 90% 0 in 0 W/m2
05:16 46.9 °F 44.2 °F 30.4 in NNW 2 mph 4 mph 90% 0 in 0 W/m2
05:21 46.9 °F 44.2 °F 30.4 in NNW 4 mph 4 mph 90% 0 in 0 W/m2
05:26 46.9 °F 44.2 °F 30.4 in NW 2.9 mph 7 mph 90% 0 in 0 W/m2
05:31 46.9 °F 43.9 °F 30.4 in NW 4 mph 4 mph 89% 0 in 0 W/m2
05:36 46.9 °F 43.9 °F 30.4 in WSW 2.9 mph 6 mph 89% 0 in 0 W/m2
05:41 46.9 °F 43.9 °F 30.4 in WNW 2.9 mph 7 mph 89% 0 in 0 W/m2
05:46 47.1 °F 44.1 °F 30.4 in SW 2.9 mph 4 mph 89% 0 in 7 W/m2
05:51 47.1 °F 44.1 °F 30.4 in WNW 4 mph 6 mph 89% 0 in 9 W/m2
05:56 47.1 °F 44.1 °F 30.4 in NW 2.9 mph 6 mph 89% 0 in 11 W/m2
06:01 47.3 °F 43.9 °F 30.4 in WNW 4 mph 6 mph 88% 0 in 14 W/m2
06:06 47.5 °F 44.1 °F 30.4 in West 4 mph 4 mph 88% 0 in 19 W/m2
06:11 47.5 °F 44.1 °F 30.4 in West 2.9 mph 6 mph 88% 0 in 26 W/m2
06:16 47.7 °F 44.1 °F 30.4 in West 6.9 mph 7 mph 87% 0 in 37 W/m2
06:21 47.8 °F 44.2 °F 30.4 in WSW 4 mph 7 mph 87% 0 in 47 W/m2
06:26 47.8 °F 44.2 °F 30.4 in West 6 mph 9 mph 87% 0 in 54 W/m2
06:31 47.8 °F 44.2 °F 30.4 in West 8.1 mph 10 mph 87% 0 in 58 W/m2
06:36 48 °F 44.4 °F 30.4 in West 2.9 mph 5 mph 87% 0 in 65 W/m2
06:41 48 °F 44.4 °F 30.4 in SSW 4 mph 7 mph 87% 0 in 76 W/m2
06:46 48.2 °F 44.6 °F 30.4 in West 2 mph 6 mph 87% 0 in 84 W/m2
06:51 48.4 °F 44.8 °F 30.4 in SW 6 mph 8 mph 87% 0 in 95 W/m2
06:56 48.6 °F 44.8 °F 30.4 in West 2 mph 7 mph 87% 0 in 107 W/m2
07:01 48.6 °F 44.8 °F 30.4 in West 2.9 mph 6 mph 87% 0 in 116 W/m2
07:06 48.7 °F 45 °F 30.4 in WNW 4 mph 5 mph 87% 0 in 123 W/m2
07:11 48.7 °F 45 °F 30.4 in WNW 2.9 mph 8 mph 87% 0 in 114 W/m2
07:16 48.7 °F 44.8 °F 30.4 in West 4 mph 7 mph 86% 0 in 107 W/m2
07:21 48.9 °F 45 °F 30.4 in WNW 4 mph 7 mph 86% 0 in 105 W/m2
07:26 48.9 °F 45.1 °F 30.4 in West 6.9 mph 8 mph 87% 0 in 118 W/m2
07:31 49.5 °F 45.5 °F 30.4 in West 6 mph 10 mph 86% 0 in 127 W/m2
07:36 49.8 °F 45.9 °F 30.4 in SW 4.9 mph 8 mph 86% 0 in 139 W/m2
07:41 50.4 °F 46 °F 30.4 in West 8.9 mph 13 mph 85% 0 in 171 W/m2
07:46 50.7 °F 46.4 °F 30.4 in WSW 6.9 mph 8 mph 85% 0 in 295 W/m2
07:51 51.1 °F 46.4 °F 30.4 in WSW 2.9 mph 12 mph 84% 0 in 276 W/m2
07:56 51.3 °F 46.9 °F 30.4 in WNW 2.9 mph 8 mph 85% 0 in 297 W/m2
08:01 51.4 °F 47.1 °F 30.4 in West 6 mph 7 mph 85% 0 in 332 W/m2
08:06 51.4 °F 47.1 °F 30.4 in West 4 mph 8 mph 85% 0 in 272 W/m2
08:11 51.6 °F 47.3 °F 30.4 in NW 6 mph 13 mph 85% 0 in 285 W/m2
08:16 51.6 °F 47.3 °F 30.4 in WNW 2.9 mph 8 mph 85% 0 in 308 W/m2
08:21 51.8 °F 47.5 °F 30.4 in WSW 6.9 mph 8 mph 85% 0 in 315 W/m2
08:26 51.8 °F 47.5 °F 30.4 in West 8.9 mph 12 mph 85% 0 in 281 W/m2
08:31 51.8 °F 47.5 °F 30.4 in West 6 mph 6 mph 85% 0 in 274 W/m2
08:36 52 °F 47.3 °F 30.4 in NW 6 mph 11 mph 84% 0 in 304 W/m2
08:41 52 °F 47.7 °F 30.4 in NNW 2.9 mph 6 mph 85% 0 in 329 W/m2
08:46 52 °F 47.3 °F 30.4 in NW 8.9 mph 11 mph 84% 0 in 279 W/m2
08:51 51.8 °F 47.5 °F 30.4 in SW 8.1 mph 10 mph 85% 0 in 287 W/m2
08:57 51.8 °F 47.5 °F 30.4 in West 4 mph 8 mph 85% 0 in 295 W/m2
09:02 52 °F 47.3 °F 30.4 in WNW 4 mph 7 mph 84% 0 in 295 W/m2
09:07 52 °F 47.3 °F 30.4 in West 6.9 mph 14 mph 84% 0 in 295 W/m2
09:12 52 °F 47.3 °F 30.4 in WNW 8.1 mph 8 mph 84% 0 in 283 W/m2
09:17 52 °F 46.9 °F 30.4 in WNW 2.9 mph 12 mph 83% 0 in 399 W/m2
09:22 52.3 °F 47.7 °F 30.5 in WNW 6.9 mph 10 mph 84% 0 in 415 W/m2
09:27 52.3 °F 47.3 °F 30.4 in WNW 4 mph 6 mph 83% 0 in 450 W/m2
09:32 52.5 °F 47.5 °F 30.5 in West 8.9 mph 11 mph 83% 0 in 417 W/m2
09:37 52.9 °F 48.2 °F 30.4 in WSW 4 mph 7 mph 84% 0 in 622 W/m2
09:42 53.2 °F 47.8 °F 30.5 in NW 4 mph 9 mph 82% 0 in 598 W/m2
09:47 53.4 °F 47.7 °F 30.5 in West 8.1 mph 12 mph 81% 0 in 599 W/m2
09:52 53.8 °F 48 °F 30.5 in WNW 4 mph 13 mph 81% 0 in 515 W/m2
09:57 54 °F 48.2 °F 30.4 in West 2.9 mph 4 mph 81% 0 in 171 W/m2
10:02 54.1 °F 48 °F 30.5 in NW 4.9 mph 13 mph 80% 0 in 160 W/m2
10:07 54.3 °F 48.2 °F 30.4 in West 6 mph 10 mph 80% 0 in 712 W/m2
10:12 54.7 °F 48.6 °F 30.5 in WNW 4.9 mph 9 mph 80% 0 in 287 W/m2
10:17 54.7 °F 48.4 °F 30.4 in WSW 6 mph 6 mph 79% 0 in 297 W/m2
10:22 54.7 °F 48 °F 30.5 in West 2.9 mph 10 mph 78% 0 in 745 W/m2
10:27 55 °F 48.4 °F 30.5 in NW 8.1 mph 13 mph 78% 0 in 844 W/m2
10:32 55 °F 48.4 °F 30.5 in SW 6 mph 8 mph 78% 0 in 223 W/m2
10:37 55.2 °F 48.2 °F 30.5 in WSW 4 mph 13 mph 77% 0 in 798 W/m2
10:42 55.4 °F 48.7 °F 30.4 in NW 14.1 mph 14 mph 78% 0 in 796 W/m2
10:47 55.8 °F 48 °F 30.5 in WNW 2 mph 10 mph 75% 0 in 752 W/m2
10:52 56.1 °F 48.9 °F 30.4 in WSW 8.1 mph 9 mph 77% 0 in 809 W/m2
10:57 56.5 °F 48.4 °F 30.4 in West 8.9 mph 9 mph 74% 0 in 728 W/m2
11:02 56.8 °F 47.8 °F 30.4 in WSW 4.9 mph 12 mph 72% 0 in 882 W/m2
11:07 56.8 °F 48.6 °F 30.4 in West 6 mph 9 mph 74% 0 in 800 W/m2
11:12 57 °F 48 °F 30.4 in NW 8.9 mph 10 mph 72% 0 in 800 W/m2
11:17 56.7 °F 47.7 °F 30.4 in WNW 8.9 mph 10 mph 72% 0 in 882 W/m2
11:22 56.7 °F 47.3 °F 30.4 in NNW 6 mph 12 mph 71% 0 in 900 W/m2
11:27 56.8 °F 47.5 °F 30.4 in West 11 mph 11 mph 71% 0 in 838 W/m2
11:32 57.4 °F 48 °F 30.4 in West 8.9 mph 13 mph 71% 0 in 1000 W/m2
11:37 57.6 °F 47.8 °F 30.4 in WNW 6.9 mph 10 mph 70% 0 in 304 W/m2
11:42 57.9 °F 47.5 °F 30.4 in West 10.1 mph 14 mph 68% 0 in 819 W/m2
11:47 58.3 °F 47.8 °F 30.4 in SW 2.9 mph 10 mph 68% 0 in 248 W/m2
11:52 57.9 °F 47.5 °F 30.5 in SW 14 mph 14 mph 68% 0 in 267 W/m2
11:57 57.7 °F 47.3 °F 30.5 in NW 4.9 mph 8 mph 68% 0 in 304 W/m2
12:02 57.6 °F 46.2 °F 30.5 in WNW 8.9 mph 12 mph 66% 0 in 202 W/m2
12:07 57.4 °F 46 °F 30.5 in WNW 6 mph 10 mph 66% 0 in 297 W/m2
12:12 57.6 °F 47.1 °F 30.5 in WNW 6.9 mph 10 mph 68% 0 in 334 W/m2
12:17 57.6 °F 46.8 °F 30.5 in WNW 12.1 mph 12 mph 67% 0 in 882 W/m2
12:22 58.3 °F 47.3 °F 30.5 in SW 2 mph 9 mph 67% 0 in 884 W/m2
12:27 58.8 °F 47.8 °F 30.5 in WSW 10.1 mph 10 mph 67% 0 in 870 W/m2
12:32 59.2 °F 46.9 °F 30.5 in NW 8.9 mph 10 mph 64% 0 in 867 W/m2
12:38 59.4 °F 48 °F 30.5 in West 8.1 mph 13 mph 66% 0 in 886 W/m2
12:43 59.4 °F 47.1 °F 30.5 in West 8.1 mph 15 mph 64% 0 in 877 W/m2
12:48 59.4 °F 46.8 °F 30.4 in WNW 4 mph 6 mph 63% 0 in 967 W/m2
12:53 59.9 °F 47.7 °F 30.4 in NW 4 mph 6 mph 64% 0 in 930 W/m2
12:58 60.1 °F 47.5 °F 30.4 in NW 6 mph 7 mph 63% 0 in 962 W/m2
13:03 60.3 °F 47.7 °F 30.4 in NW 8.9 mph 12 mph 63% 0 in 865 W/m2
13:08 60.1 °F 46.9 °F 30.4 in WNW 4 mph 10 mph 62% 0 in 911 W/m2
13:13 60.4 °F 46.9 °F 30.4 in NW 4.9 mph 11 mph 61% 0 in 889 W/m2
13:18 60.6 °F 46.6 °F 30.4 in NW 6.9 mph 9 mph 60% 0 in 942 W/m2
13:23 61 °F 48.4 °F 30.4 in NNW 4.9 mph 10 mph 63% 0 in 944 W/m2
13:28 60.8 °F 47.3 °F 30.4 in WNW 4 mph 7 mph 61% 0 in 543 W/m2
13:33 61 °F 47.5 °F 30.4 in NW 6 mph 11 mph 61% 0 in 856 W/m2
13:38 61.2 °F 47.1 °F 30.4 in NW 2 mph 6 mph 60% 0 in 807 W/m2
13:43 61.3 °F 46.9 °F 30.4 in West 4 mph 10 mph 59% 0 in 851 W/m2
13:48 61.5 °F 47.1 °F 30.4 in NW 10.1 mph 11 mph 59% 0 in 777 W/m2
13:54 62.1 °F 46.6 °F 30.4 in WSW 4 mph 8 mph 57% 0 in 807 W/m2
13:59 62.4 °F 47.5 °F 30.4 in West 4 mph 10 mph 58% 0 in 921 W/m2
14:04 62.4 °F 48.7 °F 30.4 in North 4 mph 6 mph 61% 0 in 802 W/m2
14:09 62.8 °F 47.8 °F 30.4 in WNW 8.9 mph 12 mph 58% 0 in 253 W/m2
14:14 62.4 °F 47.8 °F 30.4 in West 6 mph 14 mph 59% 0 in 911 W/m2
14:19 62.4 °F 47.5 °F 30.4 in NW 2.9 mph 9 mph 58% 0 in 867 W/m2
14:24 63.1 °F 48.2 °F 30.4 in WNW 4 mph 14 mph 58% 0 in 986 W/m2
14:29 63.1 °F 48.2 °F 30.4 in WNW 8.1 mph 9 mph 58% 0 in 251 W/m2
14:34 62.2 °F 47.7 °F 30.4 in West 8.1 mph 8 mph 59% 0 in 316 W/m2
14:39 61.9 °F 47.5 °F 30.4 in WNW 2.9 mph 7 mph 59% 0 in 258 W/m2
14:44 61.9 °F 47.8 °F 30.4 in West 4 mph 12 mph 60% 0 in 223 W/m2
14:49 61.5 °F 47.5 °F 30.4 in WNW 2.9 mph 12 mph 60% 0 in 338 W/m2
14:54 61.7 °F 47.7 °F 30.4 in WNW 2.9 mph 9 mph 60% 0 in 475 W/m2
14:59 61.9 °F 47.8 °F 30.4 in NW 2.9 mph 11 mph 60% 0 in 295 W/m2
15:04 61.5 °F 47.5 °F 30.5 in WSW 8.1 mph 9 mph 60% 0 in 318 W/m2
15:09 61.3 °F 47.8 °F 30.5 in NW 4 mph 6 mph 61% 0 in 318 W/m2
15:14 61.3 °F 47.8 °F 30.4 in West 6 mph 6 mph 61% 0 in 362 W/m2
15:19 61.7 °F 48.6 °F 30.4 in West 4 mph 7 mph 62% 0 in 350 W/m2
15:24 61.9 °F 48.2 °F 30.4 in West 8.9 mph 9 mph 61% 0 in 299 W/m2
15:29 61.9 °F 48.2 °F 30.4 in NW 4.9 mph 11 mph 61% 0 in 269 W/m2
15:34 62.1 °F 48.9 °F 30.4 in WNW 4 mph 8 mph 62% 0 in 380 W/m2
15:39 62.1 °F 48.4 °F 30.5 in NNW 4 mph 11 mph 61% 0 in 355 W/m2
15:44 61.9 °F 48.7 °F 30.4 in WNW 2.9 mph 7 mph 62% 0 in 229 W/m2
15:49 61.7 °F 48.6 °F 30.5 in West 2 mph 8 mph 62% 0 in 318 W/m2
15:54 61.9 °F 49.1 °F 30.4 in WNW 6.9 mph 10 mph 63% 0 in 432 W/m2
15:59 62.6 °F 49.8 °F 30.4 in WNW 2 mph 7 mph 63% 0 in 605 W/m2
16:04 63.7 °F 49.1 °F 30.4 in WNW 4 mph 10 mph 59% 0 in 410 W/m2
16:09 63.7 °F 49.5 °F 30.4 in West 4 mph 6 mph 60% 0 in 863 W/m2
16:14 63.5 °F 49.3 °F 30.4 in WNW 6.9 mph 9 mph 60% 0 in 450 W/m2
16:19 63.3 °F 49.3 °F 30.4 in NNW 2 mph 5 mph 60% 0 in 320 W/m2
16:24 63.1 °F 49.5 °F 30.4 in SW 8.9 mph 11 mph 61% 0 in 251 W/m2
16:29 63 °F 49.3 °F 30.5 in West 10.1 mph 13 mph 61% 0 in 844 W/m2
16:34 63.5 °F 50.2 °F 30.4 in West 8.1 mph 8 mph 62% 0 in 394 W/m2
16:39 63.3 °F 49.6 °F 30.4 in West 4 mph 13 mph 61% 0 in 302 W/m2
16:44 63.1 °F 49.1 °F 30.4 in NW 2 mph 8 mph 60% 0 in 246 W/m2
16:49 63.1 °F 49.5 °F 30.4 in WNW 4.9 mph 10 mph 61% 0 in 197 W/m2
16:54 62.8 °F 49.6 °F 30.4 in West 2.9 mph 6 mph 62% 0 in 239 W/m2
16:59 62.8 °F 49.6 °F 30.4 in NW 4 mph 9 mph 62% 0 in 343 W/m2
17:04 63.1 °F 49.8 °F 30.4 in NW 4 mph 8 mph 62% 0 in 336 W/m2
17:09 63.3 °F 49.6 °F 30.4 in West 6 mph 7 mph 61% 0 in 302 W/m2
17:15 63.3 °F 49.6 °F 30.4 in WNW 8.1 mph 12 mph 61% 0 in 327 W/m2
17:20 63.3 °F 49.6 °F 30.4 in NW 6.9 mph 10 mph 61% 0 in 392 W/m2
17:25 63.1 °F 49.5 °F 30.4 in WNW 2.9 mph 12 mph 61% 0 in 283 W/m2
17:30 63.3 °F 50 °F 30.4 in WSW 4 mph 8 mph 62% 0 in 585 W/m2
17:35 63.9 °F 49.6 °F 30.4 in West 2.9 mph 9 mph 60% 0 in 352 W/m2
17:40 63.7 °F 50 °F 30.4 in WNW 4 mph 12 mph 61% 0 in 211 W/m2
17:45 63.7 °F 50.4 °F 30.4 in WSW 4 mph 7 mph 62% 0 in 197 W/m2
17:50 64 °F 49.8 °F 30.4 in WNW 8.9 mph 12 mph 60% 0 in 468 W/m2
17:55 64 °F 49.5 °F 30.4 in WNW 6.9 mph 11 mph 59% 0 in 432 W/m2
18:00 64 °F 49.5 °F 30.4 in West 8.1 mph 10 mph 59% 0 in 417 W/m2
18:05 64.2 °F 49.6 °F 30.4 in North 6.9 mph 11 mph 59% 0 in 388 W/m2
18:10 64.2 °F 49.6 °F 30.4 in WNW 6.9 mph 10 mph 59% 0 in 443 W/m2
18:15 64.2 °F 50 °F 30.4 in West 6 mph 9 mph 60% 0 in 403 W/m2
18:20 64.2 °F 50 °F 30.4 in WNW 4 mph 10 mph 60% 0 in 396 W/m2
18:25 64.6 °F 50.4 °F 30.4 in WNW 4 mph 10 mph 60% 0 in 362 W/m2
18:30 64.2 °F 50 °F 30.4 in NW 8.1 mph 10 mph 60% 0 in 253 W/m2
18:35 64 °F 49.8 °F 30.4 in WNW 4 mph 8 mph 60% 0 in 255 W/m2
18:40 63.9 °F 49.6 °F 30.4 in WNW 4 mph 16 mph 60% 0 in 257 W/m2
18:45 63.5 °F 49.8 °F 30.4 in NW 10.1 mph 10 mph 61% 0 in 244 W/m2
18:50 63.3 °F 49.6 °F 30.4 in WSW 2.9 mph 9 mph 61% 0 in 186 W/m2
18:55 63.3 °F 50.5 °F 30.4 in West 6 mph 6 mph 63% 0 in 223 W/m2
19:00 63.5 °F 50.7 °F 30.4 in WNW 2 mph 6 mph 63% 0 in 216 W/m2
19:05 63.7 °F 49.5 °F 30.4 in WNW 4.9 mph 13 mph 60% 0 in 213 W/m2
19:10 63.5 °F 50.2 °F 30.4 in NW 4.9 mph 9 mph 62% 0 in 195 W/m2
19:15 63.3 °F 50.5 °F 30.4 in WNW 4 mph 13 mph 63% 0 in 216 W/m2
19:21 63.3 °F 50.5 °F 30.4 in West 4 mph 8 mph 63% 0 in 237 W/m2
19:26 63.7 °F 50.4 °F 30.4 in WNW 2.9 mph 11 mph 62% 0 in 246 W/m2
19:31 63.7 °F 50 °F 30.4 in WNW 4 mph 13 mph 61% 0 in 230 W/m2
19:36 63.3 °F 49.6 °F 30.4 in NW 6 mph 8 mph 61% 0 in 193 W/m2
19:41 63.1 °F 49.5 °F 30.4 in West 4 mph 11 mph 61% 0 in 178 W/m2
19:46 62.8 °F 50 °F 30.4 in WNW 6.9 mph 11 mph 63% 0 in 86 W/m2
19:51 62.2 °F 49.5 °F 30.4 in West 6 mph 12 mph 63% 0 in 93 W/m2
19:56 61.9 °F 49.6 °F 30.4 in West 8.1 mph 8 mph 64% 0 in 91 W/m2
20:01 62.1 °F 50.2 °F 30.4 in West 6.9 mph 12 mph 65% 0 in 128 W/m2
20:06 62.1 °F 50.2 °F 30.4 in West 4 mph 4 mph 65% 0 in 111 W/m2
20:11 62.2 °F 50.4 °F 30.4 in West 4 mph 9 mph 65% 0 in 107 W/m2
20:16 62.1 °F 50.5 °F 30.4 in WSW 4 mph 8 mph 66% 0 in 95 W/m2
20:21 61.9 °F 50.4 °F 30.4 in West 2 mph 9 mph 66% 0 in 91 W/m2
20:26 61.9 °F 50.7 °F 30.4 in WNW 2.9 mph 4 mph 67% 0 in 84 W/m2
20:31 61.9 °F 50.7 °F 30.4 in WNW 2.9 mph 8 mph 67% 0 in 77 W/m2
20:36 61.5 °F 50.5 °F 30.4 in West 4 mph 6 mph 67% 0 in 44 W/m2
20:41 61.2 °F 50.5 °F 30.4 in WSW 2.9 mph 5 mph 68% 0 in 30 W/m2
20:46 60.6 °F 50.4 °F 30.5 in West 2 mph 6 mph 69% 0 in 25 W/m2
20:51 60.3 °F 50.4 °F 30.5 in WSW 4.9 mph 7 mph 70% 0 in 23 W/m2
20:56 60.1 °F 50.7 °F 30.5 in WNW 2.9 mph 6 mph 71% 0 in 19 W/m2
21:01 59.7 °F 50.4 °F 30.5 in West 6.9 mph 7 mph 71% 0 in 14 W/m2
21:06 59.5 °F 50.5 °F 30.5 in WSW 2.9 mph 4 mph 72% 0 in 12 W/m2
21:11 59.4 °F 50.4 °F 30.5 in West 2 mph 4 mph 72% 0 in 11 W/m2
21:16 59 °F 50.4 °F 30.5 in Calm   2 mph 73% 0 in 7 W/m2
21:21 58.8 °F 50.2 °F 30.5 in WSW 2 mph 3 mph 73% 0 in 0 W/m2
21:26 58.6 °F 50.4 °F 30.5 in West 2 mph 3 mph 74% 0 in 0 W/m2
21:31 58.5 °F 50.2 °F 30.5 in West 2.9 mph 3 mph 74% 0 in 0 W/m2
21:36 58.5 °F 50.5 °F 30.5 in West 0.9 mph 1 mph 75% 0 in 0 W/m2
21:41 58.3 °F 50.4 °F 30.5 in West 0.9 mph 3 mph 75% 0 in 0 W/m2
21:46 57.7 °F 50.2 °F 30.5 in Calm     76% 0 in 0 W/m2
21:52 57.6 °F 50.7 °F 30.5 in West 0.9 mph 1 mph 78% 0 in 0 W/m2
21:57 57 °F 50.5 °F 30.5 in West 0.9 mph 1 mph 79% 0 in 0 W/m2
22:02 56.8 °F 50.7 °F 30.5 in Calm     80% 0 in 0 W/m2
22:07 56.7 °F 50.9 °F 30.5 in Calm     81% 0 in 0 W/m2
22:12 56.5 °F 50.7 °F 30.5 in Calm     81% 0 in 0 W/m2
22:17 56.1 °F 50.7 °F 30.5 in Calm     82% 0 in 0 W/m2
22:22 55.9 °F 50.5 °F 30.5 in Calm     82% 0 in 0 W/m2
22:27 55.9 °F 50.9 °F 30.5 in Calm     83% 0 in 0 W/m2
22:32 55.8 °F 50.7 °F 30.5 in Calm     83% 0 in 0 W/m2
22:37 55.8 °F 50.7 °F 30.5 in Calm   1 mph 83% 0 in 0 W/m2
22:42 55.8 °F 50.7 °F 30.5 in Calm     83% 0 in 0 W/m2
22:47 55.6 °F 50.9 °F 30.5 in Calm     84% 0 in 0 W/m2
22:52 55.6 °F 50.9 °F 30.5 in Calm     84% 0 in 0 W/m2
22:57 55.6 °F 50.9 °F 30.5 in Calm     84% 0 in 0 W/m2
23:02 55.2 °F 50.5 °F 30.5 in Calm     84% 0 in 0 W/m2
23:07 55 °F 50.4 °F 30.5 in Calm     84% 0 in 0 W/m2
23:12 54.9 °F 50.4 °F 30.5 in West 2 mph 2 mph 85% 0 in 0 W/m2
23:17 54.7 °F 50.5 °F 30.5 in Calm   2 mph 86% 0 in 0 W/m2
23:22 54.3 °F 50.2 °F 30.5 in Calm   1 mph 86% 0 in 0 W/m2
23:27 54.1 °F 50 °F 30.5 in Calm   1 mph 86% 0 in 0 W/m2
23:32 54 °F 50.2 °F 30.5 in Calm     87% 0 in 0 W/m2
23:37 53.8 °F 50 °F 30.5 in Calm   1 mph 87% 0 in 0 W/m2
23:42 53.4 °F 50 °F 30.5 in SSW 2 mph 2 mph 88% 0 in 0 W/m2
23:47 53.2 °F 49.8 °F 30.5 in Calm   1 mph 88% 0 in 0 W/m2
23:52 53.2 °F 49.8 °F 30.5 in Calm     88% 0 in 0 W/m2
23:57 53.2 °F 49.8 °F 30.5 in Calm     88% 0 in 0 W/m2
Juneau County Weather
Compliments of Weather Underground - 2 mb